createdAt,value
2018-09-23T00:00:03.506Z,14.23
2018-09-23T00:02:33.823Z,14.18
2018-09-23T00:05:05.262Z,14.11
2018-09-23T00:07:35.994Z,14.05
2018-09-23T00:10:08.116Z,14.02
2018-09-23T00:12:39.174Z,14.05
2018-09-23T00:15:10.045Z,14.08
2018-09-23T00:17:40.192Z,14.15
2018-09-23T00:20:10.578Z,14.12
2018-09-23T00:22:40.587Z,14.19
2018-09-23T00:25:11.960Z,14.30
2018-09-23T00:27:42.126Z,14.30
2018-09-23T00:30:14.344Z,14.27
2018-09-23T00:32:44.431Z,14.21
2018-09-23T00:35:15.302Z,14.24
2018-09-23T00:37:45.759Z,14.24
2018-09-23T00:40:15.776Z,14.30
2018-09-23T00:42:46.196Z,14.35
2018-09-23T00:45:17.553Z,14.38
2018-09-23T00:47:47.973Z,14.38
2018-09-23T00:50:17.892Z,14.22
2018-09-23T00:52:48.759Z,14.21
2018-09-23T00:55:18.956Z,14.14
2018-09-23T00:57:49.025Z,14.18
2018-09-23T01:00:19.358Z,14.24
2018-09-23T01:02:49.720Z,14.24
2018-09-23T01:05:20.296Z,14.20
2018-09-23T01:07:51.404Z,14.11
2018-09-23T01:10:21.364Z,14.04
2018-09-23T01:12:53.232Z,14.04
2018-09-23T01:15:23.961Z,14.07
2018-09-23T01:17:55.423Z,14.06
2018-09-23T01:20:25.365Z,14.07
2018-09-23T01:22:55.837Z,14.09
2018-09-23T01:25:26.229Z,14.06
2018-09-23T01:27:57.109Z,14.01
2018-09-23T01:30:28.216Z,13.97
2018-09-23T01:32:58.414Z,13.95
2018-09-23T01:35:29.562Z,13.86
2018-09-23T01:38:00.461Z,14.00
2018-09-23T01:40:30.416Z,13.90
2018-09-23T01:43:00.221Z,13.68
2018-09-23T01:45:30.568Z,13.82
2018-09-23T01:48:00.903Z,13.93
2018-09-23T01:50:30.965Z,13.91
2018-09-23T01:53:03.170Z,13.94
2018-09-23T01:55:36.450Z,13.90
2018-09-23T01:58:07.259Z,13.96
2018-09-23T02:00:38.515Z,14.02
2018-09-23T02:03:08.658Z,13.93
2018-09-23T02:05:39.061Z,14.00
2018-09-23T02:08:08.907Z,13.98
2018-09-23T02:10:38.686Z,13.95
2018-09-23T02:13:08.937Z,13.96
2018-09-23T02:15:38.979Z,13.93
2018-09-23T02:18:09.022Z,13.98
2018-09-23T02:20:39.548Z,13.99
2018-09-23T02:23:10.278Z,14.00
2018-09-23T02:25:40.989Z,14.03
2018-09-23T02:28:11.526Z,14.04
2018-09-23T02:30:41.623Z,14.08
2018-09-23T02:33:11.769Z,14.14
2018-09-23T02:35:42.495Z,14.17
2018-09-23T02:38:12.623Z,14.23
2018-09-23T02:40:43.182Z,14.17
2018-09-23T02:43:13.361Z,14.05
2018-09-23T02:45:43.614Z,14.11
2018-09-23T02:48:14.521Z,14.09
2018-09-23T02:50:44.785Z,13.95
2018-09-23T02:53:14.921Z,13.96
2018-09-23T02:55:45.210Z,13.96
2018-09-23T02:58:15.628Z,14.09
2018-09-23T03:00:45.562Z,14.14
2018-09-23T03:03:17.089Z,14.15
2018-09-23T03:05:47.363Z,14.14
2018-09-23T03:08:17.448Z,14.24
2018-09-23T03:10:47.417Z,14.28
2018-09-23T03:13:17.893Z,14.26
2018-09-23T03:15:48.974Z,14.15
2018-09-23T03:18:20.188Z,14.17
2018-09-23T03:20:51.895Z,14.10
2018-09-23T03:23:24.167Z,13.99
2018-09-23T03:25:54.521Z,13.95
2018-09-23T03:28:24.986Z,13.95
2018-09-23T03:30:54.841Z,13.98
2018-09-23T03:33:25.285Z,13.94
2018-09-23T03:35:55.443Z,13.89
2018-09-23T03:38:28.060Z,13.93
2018-09-23T03:40:59.779Z,13.98
2018-09-23T03:43:30.294Z,14.00
2018-09-23T03:46:00.987Z,13.97
2018-09-23T03:48:34.773Z,13.98
2018-09-23T03:51:06.132Z,13.87
2018-09-23T03:53:37.579Z,13.82
2018-09-23T03:56:07.875Z,13.81
2018-09-23T03:58:37.839Z,13.74
2018-09-23T04:01:08.728Z,13.79
2018-09-23T04:03:39.985Z,13.89
2018-09-23T04:06:11.038Z,13.95
2018-09-23T04:08:41.480Z,13.99
2018-09-23T04:11:11.653Z,13.94
2018-09-23T04:13:41.944Z,13.93
2018-09-23T04:16:12.411Z,13.93
2018-09-23T04:18:42.464Z,14.04
2018-09-23T04:21:12.756Z,14.06
2018-09-23T04:23:43.609Z,14.00
2018-09-23T04:26:14.315Z,14.05
2018-09-23T04:28:44.539Z,14.12
2018-09-23T04:31:15.383Z,14.22
2018-09-23T04:33:45.878Z,14.24
2018-09-23T04:36:16.836Z,14.25
2018-09-23T04:38:47.138Z,14.30
2018-09-23T04:41:18.256Z,14.28
2018-09-23T04:43:48.507Z,14.29
2018-09-23T04:46:20.027Z,14.26
2018-09-23T04:48:50.195Z,14.14
2018-09-23T04:51:21.491Z,14.16
2018-09-23T04:53:51.640Z,14.18
2018-09-23T04:56:23.074Z,14.17
2018-09-23T04:58:53.471Z,14.08
2018-09-23T05:01:24.936Z,14.07
2018-09-23T05:03:55.289Z,14.14
2018-09-23T05:06:25.163Z,13.70
2018-09-23T05:08:56.026Z,14.08
2018-09-23T05:11:26.395Z,13.95
2018-09-23T05:13:56.275Z,13.99
2018-09-23T05:16:27.313Z,14.00
2018-09-23T05:18:57.529Z,14.00
2018-09-23T05:21:27.994Z,13.93
2018-09-23T05:23:59.434Z,13.82
2018-09-23T05:26:29.676Z,13.78
2018-09-23T05:29:00.004Z,13.80
2018-09-23T05:31:30.462Z,13.85
2018-09-23T05:34:00.496Z,13.96
2018-09-23T05:36:30.601Z,13.93
2018-09-23T05:39:01.288Z,13.80
2018-09-23T05:41:32.711Z,13.86
2018-09-23T05:44:03.575Z,13.87
2018-09-23T05:46:34.730Z,13.94
2018-09-23T05:49:05.431Z,14.03
2018-09-23T05:51:36.643Z,14.07
2018-09-23T05:54:08.150Z,14.25
2018-09-23T05:56:38.591Z,14.25
2018-09-23T05:59:11.878Z,14.29
2018-09-23T06:01:56.742Z,14.31
2018-09-23T06:04:30.936Z,14.31
2018-09-23T06:07:02.935Z,14.34
2018-09-23T06:09:33.226Z,14.19
2018-09-23T06:12:03.154Z,14.46
2018-09-23T06:14:34.415Z,14.50
2018-09-23T06:17:05.550Z,14.67
2018-09-23T06:19:47.182Z,14.66
2018-09-23T06:22:22.656Z,14.67
2018-09-23T06:24:53.763Z,14.69
2018-09-23T06:27:26.987Z,14.54
2018-09-23T06:30:00.891Z,14.75
2018-09-23T06:32:32.321Z,14.63
2018-09-23T06:35:09.000Z,14.69
2018-09-23T06:37:40.531Z,14.70
2018-09-23T06:40:17.926Z,14.53
2018-09-23T06:42:47.786Z,14.70
2018-09-23T06:45:21.201Z,14.75
2018-09-23T06:47:51.592Z,14.74
2018-09-23T06:50:23.904Z,14.65
2018-09-23T06:52:55.368Z,14.61
2018-09-23T06:55:26.528Z,14.97
2018-09-23T06:57:56.837Z,15.11
2018-09-23T07:00:28.342Z,15.06
2018-09-23T07:02:59.294Z,15.05
2018-09-23T07:05:31.308Z,14.99
2018-09-23T07:08:03.939Z,15.00
2018-09-23T07:10:34.212Z,15.05
2018-09-23T07:13:04.392Z,15.00
2018-09-23T07:15:37.687Z,15.13
2018-09-23T07:18:08.253Z,15.21
2018-09-23T07:20:39.442Z,15.13
2018-09-23T07:23:09.796Z,15.15
2018-09-23T07:25:39.973Z,15.25
2018-09-23T07:28:14.085Z,15.15
2018-09-23T07:30:48.824Z,15.12
2018-09-23T07:33:20.828Z,15.13
2018-09-23T07:35:54.533Z,15.18
2018-09-23T07:38:26.660Z,15.32
2018-09-23T07:40:57.782Z,15.36
2018-09-23T07:43:29.817Z,15.30
2018-09-23T07:45:59.713Z,15.28
2018-09-23T07:48:33.979Z,15.31
2018-09-23T07:51:04.633Z,15.38
2018-09-23T07:53:34.773Z,15.37
2018-09-23T07:56:05.526Z,15.49
2018-09-23T07:58:35.539Z,15.50
2018-09-23T08:01:19.691Z,15.49
2018-09-23T08:03:53.513Z,15.58
2018-09-23T08:06:31.000Z,15.61
2018-09-23T08:09:01.081Z,15.59
2018-09-23T08:11:39.804Z,15.60
2018-09-23T08:14:12.784Z,15.79
2018-09-23T08:16:43.878Z,15.79
2018-09-23T08:19:17.225Z,15.69
2018-09-23T08:21:56.171Z,16.01
2018-09-23T08:24:39.388Z,16.10
2018-09-23T08:27:10.497Z,16.11
2018-09-23T08:29:45.465Z,16.10
2018-09-23T08:32:20.181Z,16.26
2018-09-23T08:34:52.218Z,16.40
2018-09-23T08:37:22.413Z,16.56
2018-09-23T08:39:54.290Z,16.74
2018-09-23T08:42:25.469Z,16.86
2018-09-23T08:44:56.403Z,16.82
2018-09-23T08:47:29.381Z,16.81
2018-09-23T08:49:59.675Z,16.76
2018-09-23T08:52:31.590Z,16.65
2018-09-23T08:55:02.042Z,16.56
2018-09-23T08:57:33.260Z,16.70
2018-09-23T09:00:04.373Z,16.89
2018-09-23T09:02:35.650Z,17.16
2018-09-23T09:05:07.711Z,17.21
2018-09-23T09:07:40.706Z,17.21
2018-09-23T09:10:14.042Z,17.28
2018-09-23T09:12:45.505Z,17.23
2018-09-23T09:15:16.902Z,17.21
2018-09-23T09:17:47.796Z,17.30
2018-09-23T09:20:19.968Z,17.40
2018-09-23T09:22:51.211Z,17.49
2018-09-23T09:25:23.406Z,17.54
2018-09-23T09:27:56.861Z,17.57
2018-09-23T09:30:28.237Z,17.62
2018-09-23T09:32:58.204Z,17.60
2018-09-23T09:35:30.840Z,17.67
2018-09-23T09:38:01.361Z,17.84
2018-09-23T09:40:31.737Z,17.77
2018-09-23T09:43:05.217Z,17.83
2018-09-23T09:45:36.502Z,17.82
2018-09-23T09:48:06.922Z,17.80
2018-09-23T09:50:37.676Z,17.83
2018-09-23T09:53:09.347Z,17.65
2018-09-23T09:55:39.433Z,17.95
2018-09-23T09:58:12.346Z,17.99
2018-09-23T10:00:42.934Z,18.02
2018-09-23T10:03:16.491Z,17.94
2018-09-23T10:05:46.626Z,17.89
2018-09-23T10:08:19.085Z,17.94
2018-09-23T10:10:49.630Z,17.96
2018-09-23T10:13:20.104Z,17.91
2018-09-23T10:15:50.746Z,18.04
2018-09-23T10:18:20.955Z,18.00
2018-09-23T10:20:53.143Z,18.03
2018-09-23T10:23:27.034Z,18.04
2018-09-23T10:26:00.026Z,18.03
2018-09-23T10:28:32.608Z,18.11
2018-09-23T10:31:04.679Z,18.30
2018-09-23T10:33:35.055Z,18.41
2018-09-23T10:36:06.911Z,18.38
2018-09-23T10:38:37.227Z,18.22
2018-09-23T10:41:10.106Z,18.10
2018-09-23T10:43:41.132Z,17.89
2018-09-23T10:46:16.752Z,17.87
2018-09-23T10:48:49.656Z,17.82
2018-09-23T10:51:19.925Z,17.82
2018-09-23T10:53:49.978Z,17.85
2018-09-23T10:56:21.491Z,17.94
2018-09-23T10:58:51.900Z,17.88
2018-09-23T11:01:23.306Z,17.77
2018-09-23T11:03:53.884Z,17.68
2018-09-23T11:06:24.349Z,17.62
2018-09-23T11:08:54.847Z,17.58
2018-09-23T11:11:25.159Z,17.51
2018-09-23T11:13:56.014Z,17.44
2018-09-23T11:16:26.074Z,17.20
2018-09-23T11:18:56.934Z,17.26
2018-09-23T11:21:28.251Z,17.16
2018-09-23T11:24:02.409Z,17.21
2018-09-23T11:26:35.090Z,17.32
2018-09-23T11:29:06.881Z,17.33
2018-09-23T11:31:37.321Z,17.35
2018-09-23T11:34:08.823Z,17.32
2018-09-23T11:36:43.644Z,17.26
2018-09-23T11:39:15.488Z,17.36
2018-09-23T11:41:45.469Z,17.39
2018-09-23T11:44:15.946Z,17.44
2018-09-23T11:46:47.758Z,17.46
2018-09-23T11:49:19.602Z,17.49
2018-09-23T11:51:50.396Z,17.44
2018-09-23T11:54:20.882Z,17.43
2018-09-23T11:56:51.948Z,17.48
2018-09-23T11:59:22.765Z,17.68
2018-09-23T12:01:53.425Z,17.87
2018-09-23T12:04:23.483Z,17.84
2018-09-23T12:06:54.578Z,17.79
2018-09-23T12:09:26.703Z,17.90
2018-09-23T12:12:00.049Z,17.89
2018-09-23T12:14:32.132Z,17.84
2018-09-23T12:17:06.922Z,17.76
2018-09-23T12:19:39.013Z,17.80
2018-09-23T12:22:10.653Z,17.79
2018-09-23T12:24:41.114Z,17.80
2018-09-23T12:27:13.898Z,17.87
2018-09-23T12:29:45.827Z,17.96
2018-09-23T12:32:17.727Z,17.96
2018-09-23T12:34:48.912Z,17.92
2018-09-23T12:37:20.850Z,17.81
2018-09-23T12:39:52.793Z,17.57
2018-09-23T12:42:25.404Z,17.36
2018-09-23T12:44:58.255Z,17.22
2018-09-23T12:47:32.973Z,17.08
2018-09-23T12:50:06.664Z,16.99
2018-09-23T12:52:50.278Z,16.95
2018-09-23T12:55:23.964Z,16.89
2018-09-23T12:57:57.425Z,16.89
2018-09-23T13:00:30.923Z,16.76
2018-09-23T13:03:02.982Z,16.76
2018-09-23T13:05:35.454Z,16.73
2018-09-23T13:08:08.145Z,16.76
2018-09-23T13:10:40.578Z,16.76
2018-09-23T13:13:12.202Z,16.81
2018-09-23T13:15:49.899Z,16.54
2018-09-23T13:18:23.145Z,16.48
2018-09-23T13:20:55.506Z,16.46
2018-09-23T13:23:29.236Z,16.37
2018-09-23T13:26:03.062Z,16.17
2018-09-23T13:28:36.994Z,16.03
2018-09-23T13:31:09.853Z,15.97
2018-09-23T13:33:41.215Z,15.86
2018-09-23T13:36:18.141Z,15.78
2018-09-23T13:38:49.699Z,15.68
2018-09-23T13:41:24.991Z,15.45
2018-09-23T13:43:57.486Z,15.28
2018-09-23T13:46:30.187Z,15.04
2018-09-23T13:49:02.188Z,14.86
2018-09-23T13:51:33.699Z,14.68
2018-09-23T13:54:06.312Z,14.56
2018-09-23T13:56:40.801Z,14.42
2018-09-23T13:59:11.835Z,14.20
2018-09-23T14:01:43.954Z,14.20
2018-09-23T14:04:19.052Z,14.22
2018-09-23T14:06:51.844Z,14.32
2018-09-23T14:09:22.158Z,14.20
2018-09-23T14:11:52.541Z,14.20
2018-09-23T14:14:23.483Z,14.30
2018-09-23T14:16:56.148Z,14.26
2018-09-23T14:19:27.544Z,14.27
2018-09-23T14:21:58.648Z,14.23
2018-09-23T14:24:29.313Z,14.27
2018-09-23T14:27:01.577Z,14.23
2018-09-23T14:29:34.470Z,14.21
2018-09-23T14:32:07.456Z,14.10
2018-09-23T14:34:39.943Z,14.14
2018-09-23T14:37:10.676Z,14.10
2018-09-23T14:39:43.521Z,14.03
2018-09-23T14:42:16.045Z,13.95
2018-09-23T14:44:47.464Z,13.76
2018-09-23T14:47:18.704Z,13.67
2018-09-23T14:49:49.854Z,13.55
2018-09-23T14:52:21.069Z,13.45
2018-09-23T14:54:51.918Z,13.34
2018-09-23T14:57:25.159Z,13.35
2018-09-23T15:00:03.067Z,13.35
2018-09-23T15:02:29.789Z,13.31
2018-09-23T15:04:59.737Z,13.23
2018-09-23T15:07:31.751Z,13.27
2018-09-23T15:10:03.315Z,13.30
2018-09-23T15:12:39.605Z,13.27
2018-09-23T15:15:11.159Z,13.31
2018-09-23T15:17:43.753Z,13.25
2018-09-23T15:20:15.453Z,13.22
2018-09-23T15:22:45.960Z,13.32
2018-09-23T15:25:17.958Z,13.19
2018-09-23T15:28:05.175Z,13.01
2018-09-23T15:30:35.769Z,12.86
2018-09-23T15:33:06.274Z,12.80
2018-09-23T15:35:38.958Z,12.79
2018-09-23T15:38:09.501Z,12.73
2018-09-23T15:40:39.863Z,12.71
2018-09-23T15:43:10.564Z,12.65
2018-09-23T15:45:41.690Z,12.67
2018-09-23T15:48:12.126Z,12.78
2018-09-23T15:50:42.427Z,12.78
2018-09-23T15:53:13.153Z,12.72
2018-09-23T15:55:43.683Z,12.70
2018-09-23T15:58:15.268Z,12.73
2018-09-23T16:00:47.217Z,12.72
2018-09-23T16:03:17.891Z,12.69
2018-09-23T16:05:47.971Z,12.69
2018-09-23T16:08:18.551Z,12.74
2018-09-23T16:10:49.465Z,12.83
2018-09-23T16:13:21.561Z,12.90
2018-09-23T16:15:52.260Z,12.94
2018-09-23T16:18:22.646Z,13.00
2018-09-23T16:20:53.113Z,12.95
2018-09-23T16:23:23.079Z,12.88
2018-09-23T16:25:57.080Z,12.80
2018-09-23T16:28:27.658Z,12.65
2018-09-23T16:30:58.203Z,12.56
2018-09-23T16:33:28.469Z,12.50
2018-09-23T16:35:58.968Z,12.43
2018-09-23T16:38:33.840Z,12.30
2018-09-23T16:41:05.862Z,12.39
2018-09-23T16:43:37.181Z,12.44
2018-09-23T16:46:09.021Z,12.42
2018-09-23T16:48:41.250Z,12.44
2018-09-23T16:51:15.904Z,12.44
2018-09-23T16:53:47.323Z,12.40
2018-09-23T16:56:18.674Z,12.21
2018-09-23T16:58:51.571Z,12.18
2018-09-23T17:01:24.178Z,12.21
2018-09-23T17:03:55.521Z,12.19
2018-09-23T17:06:27.095Z,12.19
2018-09-23T17:08:58.649Z,12.08
2018-09-23T17:11:31.629Z,12.07
2018-09-23T17:14:03.809Z,12.10
2018-09-23T17:16:34.646Z,12.05
2018-09-23T17:19:05.534Z,12.02
2018-09-23T17:21:36.726Z,11.82
2018-09-23T17:24:10.953Z,11.81
2018-09-23T17:26:41.475Z,11.76
2018-09-23T17:29:12.550Z,11.86
2018-09-23T17:31:45.092Z,11.82
2018-09-23T17:34:15.919Z,11.57
2018-09-23T17:36:46.265Z,11.34
2018-09-23T17:39:16.348Z,11.26
2018-09-23T17:41:46.976Z,10.87
2018-09-23T17:44:18.012Z,10.93
2018-09-23T17:46:48.911Z,10.63
2018-09-23T17:49:22.562Z,10.87
2018-09-23T17:51:53.997Z,10.81
2018-09-23T17:54:24.319Z,10.71
2018-09-23T17:56:56.660Z,10.77
2018-09-23T17:59:29.657Z,10.77
2018-09-23T18:02:03.216Z,10.62
2018-09-23T18:04:41.204Z,10.60
2018-09-23T18:07:17.501Z,10.63
2018-09-23T18:09:50.163Z,10.55
2018-09-23T18:12:22.291Z,10.54
2018-09-23T18:14:55.382Z,10.54
2018-09-23T18:17:25.822Z,10.54
2018-09-23T18:19:57.792Z,10.63
2018-09-23T18:22:29.740Z,10.59
2018-09-23T18:25:01.675Z,10.58
2018-09-23T18:27:31.861Z,10.52
2018-09-23T18:30:02.773Z,10.54
2018-09-23T18:32:35.298Z,10.62
2018-09-23T18:35:06.582Z,10.63
2018-09-23T18:37:37.313Z,10.75
2018-09-23T18:40:09.091Z,10.78
2018-09-23T18:42:39.442Z,10.67
2018-09-23T18:45:13.545Z,10.64
2018-09-23T18:47:44.167Z,10.64
2018-09-23T18:50:15.509Z,10.59
2018-09-23T18:52:45.531Z,10.45
2018-09-23T18:55:20.993Z,10.41
2018-09-23T18:57:51.445Z,10.41
2018-09-23T19:00:21.661Z,10.40
2018-09-23T19:02:52.977Z,10.41
2018-09-23T19:05:22.900Z,10.38
2018-09-23T19:07:52.668Z,10.33
2018-09-23T19:10:22.933Z,10.33
2018-09-23T19:12:57.911Z,10.30
2018-09-23T19:15:29.612Z,10.31
2018-09-23T19:18:01.286Z,10.38
2018-09-23T19:20:31.359Z,10.38
2018-09-23T19:23:10.053Z,10.40
2018-09-23T19:25:40.063Z,10.41
2018-09-23T19:28:11.910Z,10.34
2018-09-23T19:30:43.151Z,10.22
2018-09-23T19:33:13.811Z,9.77
2018-09-23T19:35:44.158Z,9.90
2018-09-23T19:38:15.306Z,9.74
2018-09-23T19:40:45.894Z,9.81
2018-09-23T19:43:17.066Z,9.79
2018-09-23T19:45:47.004Z,9.74
2018-09-23T19:48:18.054Z,9.62
2018-09-23T19:50:48.741Z,9.72
2018-09-23T19:53:18.935Z,9.64
2018-09-23T19:55:49.948Z,9.70
2018-09-23T19:58:20.570Z,9.78
2018-09-23T20:00:50.599Z,9.70
2018-09-23T20:03:21.242Z,9.63
2018-09-23T20:05:52.138Z,9.66
2018-09-23T20:08:22.257Z,9.74
2018-09-23T20:10:55.146Z,9.66
2018-09-23T20:13:28.460Z,9.69
2018-09-23T20:15:58.925Z,9.75
2018-09-23T20:18:29.557Z,9.66
2018-09-23T20:21:01.024Z,9.71
2018-09-23T20:23:31.424Z,9.63
2018-09-23T20:26:02.353Z,9.53
2018-09-23T20:28:32.986Z,9.62
2018-09-23T20:31:04.205Z,9.70
2018-09-23T20:33:38.026Z,9.60
2018-09-23T20:36:09.162Z,9.53
2018-09-23T20:38:39.229Z,9.55
2018-09-23T20:41:09.103Z,9.57
2018-09-23T20:43:40.155Z,9.65
2018-09-23T20:46:10.733Z,9.64
2018-09-23T20:48:40.527Z,9.65
2018-09-23T20:51:10.756Z,9.66
2018-09-23T20:53:40.826Z,9.46
2018-09-23T20:56:12.565Z,9.52
2018-09-23T20:58:43.971Z,9.46
2018-09-23T21:01:15.793Z,9.54
2018-09-23T21:03:46.698Z,9.44
2018-09-23T21:06:16.868Z,9.52
2018-09-23T21:08:46.825Z,9.54
2018-09-23T21:11:18.161Z,9.48
2018-09-23T21:13:48.358Z,9.44
2018-09-23T21:16:18.191Z,9.41
2018-09-23T21:18:48.058Z,9.48
2018-09-23T21:21:19.031Z,9.49
2018-09-23T21:23:49.297Z,9.36
2018-09-23T21:26:19.348Z,9.54
2018-09-23T21:28:49.538Z,9.59
2018-09-23T21:31:19.462Z,9.65
2018-09-23T21:33:49.290Z,9.64
2018-09-23T21:36:19.597Z,9.68
2018-09-23T21:38:49.539Z,9.70
2018-09-23T21:41:19.962Z,9.76
2018-09-23T21:43:50.298Z,9.76
2018-09-23T21:46:20.114Z,9.79
2018-09-23T21:48:51.168Z,9.72
2018-09-23T21:51:21.366Z,9.72
2018-09-23T21:53:51.244Z,9.79
2018-09-23T21:56:21.089Z,9.67
2018-09-23T21:58:51.783Z,9.58
2018-09-23T22:01:24.411Z,9.69
2018-09-23T22:03:55.076Z,9.72
2018-09-23T22:06:24.976Z,9.54
2018-09-23T22:08:55.434Z,9.47
2018-09-23T22:11:26.618Z,9.41
2018-09-23T22:13:57.650Z,9.38
2018-09-23T22:16:28.050Z,9.42
2018-09-23T22:18:58.228Z,9.43
2018-09-23T22:21:29.065Z,9.41
2018-09-23T22:23:59.802Z,9.36
2018-09-23T22:26:30.446Z,9.17
2018-09-23T22:29:01.872Z,9.15
2018-09-23T22:31:31.774Z,9.09
2018-09-23T22:34:02.991Z,8.96
2018-09-23T22:36:33.699Z,8.96
2018-09-23T22:39:04.336Z,8.91
2018-09-23T22:41:36.295Z,8.85
2018-09-23T22:44:06.504Z,8.82
2018-09-23T22:46:36.931Z,8.85
2018-09-23T22:49:07.719Z,8.93
2018-09-23T22:51:37.742Z,8.93
2018-09-23T22:54:08.228Z,8.96
2018-09-23T22:56:38.325Z,8.96
2018-09-23T22:59:09.069Z,8.88
2018-09-23T23:01:39.336Z,8.85
2018-09-23T23:04:09.588Z,8.89
2018-09-23T23:06:40.169Z,8.95
2018-09-23T23:09:10.974Z,9.01
2018-09-23T23:11:40.969Z,9.04
2018-09-23T23:14:11.988Z,9.05
2018-09-23T23:16:41.749Z,9.13
2018-09-23T23:19:11.624Z,9.10
2018-09-23T23:21:41.686Z,9.17
2018-09-23T23:24:11.901Z,9.16
2018-09-23T23:26:41.777Z,9.25
2018-09-23T23:29:12.198Z,9.39
2018-09-23T23:31:42.100Z,9.42
2018-09-23T23:34:12.121Z,9.32
2018-09-23T23:36:42.003Z,9.28
2018-09-23T23:39:12.833Z,9.29
2018-09-23T23:41:43.218Z,9.03
2018-09-23T23:44:14.775Z,8.96
2018-09-23T23:46:44.916Z,9.13
2018-09-23T23:49:15.051Z,9.18
2018-09-23T23:51:45.225Z,9.11
2018-09-23T23:54:17.324Z,9.07
2018-09-23T23:56:47.849Z,9.06
2018-09-23T23:59:18.372Z,8.97
